Time;durP1;ratioP1;P1;durP2;ratioP2;P2;SDS_P1;SDS_P2;PMS_P1;PMS_P2;Temp;Humidity;BMP_temperature;BMP_pressure;BME280_temperature;BME280_humidity;BME280_pressure;Samples;Min_cycle;Max_cycle;Signal;HPM_P1;HPM_P2
2022/10/17 00:00:26;;;;;;;2.20;1.45;;;13.90;99.90;;;;;;5056489;28;20021;-75
2022/10/17 00:02:54;;;;;;;4.47;1.55;;;13.90;99.90;;;;;;5055194;28;20029;-75
2022/10/17 00:05:20;;;;;;;4.72;1.40;;;13.80;99.90;;;;;;5056957;28;20033;-75
2022/10/17 00:07:46;;;;;;;2.95;1.55;;;13.80;99.90;;;;;;5056397;28;20024;-75
2022/10/17 00:10:11;;;;;;;5.78;1.77;;;13.70;99.90;;;;;;5055030;28;20075;-75
2022/10/17 00:12:37;;;;;;;2.28;1.38;;;13.70;99.90;;;;;;5054836;28;20028;-75
2022/10/17 00:15:05;;;;;;;2.15;1.38;;;13.70;99.90;;;;;;5054945;28;20392;-75
2022/10/17 00:17:31;;;;;;;2.30;1.45;;;13.70;99.90;;;;;;5056110;28;20531;-75
2022/10/17 00:19:58;;;;;;;8.32;1.83;;;13.70;99.90;;;;;;5054829;28;20052;-75
2022/10/17 00:22:24;;;;;;;2.67;1.42;;;13.70;99.90;;;;;;5054822;28;20446;-74
2022/10/17 00:24:49;;;;;;;3.35;1.45;;;13.60;99.90;;;;;;5056095;28;20064;-74
2022/10/17 00:27:15;;;;;;;4.28;1.67;;;13.60;99.90;;;;;;5054812;28;20025;-74
2022/10/17 00:29:40;;;;;;;2.60;1.83;;;13.60;99.90;;;;;;5054588;28;20025;-74
2022/10/17 00:32:06;;;;;;;5.78;2.00;;;14.10;99.90;;;;;;5055816;28;20445;-75
2022/10/17 00:34:31;;;;;;;5.40;2.03;;;13.60;99.90;;;;;;5056400;28;20407;-76
2022/10/17 00:36:57;;;;;;;2.40;1.35;;;13.60;99.90;;;;;;5054533;28;20027;-75
2022/10/17 00:39:23;;;;;;;3.30;1.90;;;13.50;99.90;;;;;;5054530;28;20475;-75
2022/10/17 00:41:49;;;;;;;6.30;1.73;;;13.50;99.90;;;;;;5055643;28;20039;-74
2022/10/17 00:44:29;;;;;;;3.10;1.50;;;13.50;99.90;;;;;;5054402;28;20107;-75
2022/10/17 00:46:57;;;;;;;5.28;2.17;;;13.50;99.90;;;;;;5053701;28;20506;-75
2022/10/17 00:49:25;;;;;;;6.18;2.22;;;13.50;99.90;;;;;;5054125;28;20104;-75
2022/10/17 00:51:57;;;;;;;3.42;1.98;;;13.50;99.90;;;;;;5056394;28;20039;-75
2022/10/17 00:54:27;;;;;;;5.28;1.85;;;13.40;99.90;;;;;;5054278;28;20025;-75
2022/10/17 00:56:54;;;;;;;3.83;1.80;;;13.40;99.90;;;;;;5054536;28;20472;-75
2022/10/17 00:59:20;;;;;;;1.92;1.67;;;13.50;99.90;;;;;;5055955;28;20048;-75
2022/10/17 01:01:55;;;;;;;3.75;1.90;;;13.50;99.90;;;;;;5055266;28;20021;-75
2022/10/17 01:04:21;;;;;;;3.40;2.05;;;13.50;99.90;;;;;;5054127;28;20029;-75
2022/10/17 01:06:47;;;;;;;8.27;2.35;;;13.60;99.90;;;;;;5055245;28;20443;-75
2022/10/17 01:09:12;;;;;;;4.97;2.30;;;13.60;99.90;;;;;;5055231;28;20063;-75
2022/10/17 01:11:38;;;;;;;5.82;2.50;;;13.60;99.90;;;;;;5055127;28;20021;-74
2022/10/17 01:14:11;;;;;;;4.78;2.10;;;13.60;99.90;;;;;;5053955;28;20045;-76
2022/10/17 01:16:47;;;;;;;6.00;2.05;;;13.90;99.90;;;;;;5053797;28;20049;-76
2022/10/17 01:19:30;;;;;;;4.20;2.65;;;13.80;99.90;;;;;;5053792;28;20107;-75
2022/10/17 01:22:01;;;;;;;3.42;2.13;;;13.60;99.90;;;;;;5054988;28;20510;-74
2022/10/17 01:25:15;;;;;;;5.80;1.75;;;13.60;99.90;;;;;;5055550;28;20357;-76
2022/10/17 01:28:12;;;;;;;3.40;2.00;;;13.60;99.90;;;;;;5055418;28;20024;-75
2022/10/17 01:30:59;;;;;;;4.80;2.47;;;13.70;99.90;;;;;;5055111;28;20055;-74
2022/10/17 01:33:47;;;;;;;3.53;2.50;;;13.60;99.90;;;;;;5054819;28;20039;-74
2022/10/17 01:36:36;;;;;;;5.90;2.45;;;13.60;99.90;;;;;;5054784;28;20028;-75
2022/10/17 01:39:23;;;;;;;9.57;2.55;;;13.60;99.90;;;;;;5053420;28;20025;-75
2022/10/17 01:42:16;;;;;;;4.57;2.25;;;13.60;99.90;;;;;;5054524;28;20028;-75
2022/10/17 01:45:02;;;;;;;4.85;2.75;;;13.70;99.90;;;;;;5054571;28;20021;-75
2022/10/17 01:47:31;;;;;;;4.60;2.67;;;13.70;99.90;;;;;;5053300;28;20373;-75
2022/10/17 01:50:11;;;;;;;3.28;2.00;;;13.70;99.90;;;;;;5054150;28;20064;-75
2022/10/17 01:52:58;;;;;;;4.70;2.30;;;13.70;99.90;;;;;;5054853;28;20025;-75
2022/10/17 01:55:38;;;;;;;4.80;3.03;;;13.70;99.90;;;;;;5054400;28;20021;-76
2022/10/17 01:58:12;;;;;;;4.30;2.35;;;13.80;99.90;;;;;;5053850;28;20414;-75
2022/10/17 02:00:41;;;;;;;4.55;2.80;;;13.80;99.90;;;;;;5054490;28;20546;-76
2022/10/17 02:03:08;;;;;;;;;;;13.90;99.90;;;;;;5054603;28;20537;-75
2022/10/17 02:05:39;;;;;;;4.80;2.70;;;13.90;99.90;;;;;;5052824;28;19905;-75
2022/10/17 02:08:05;;;;;;;5.80;2.65;;;13.90;99.90;;;;;;5052778;28;20025;-75
2022/10/17 02:10:37;;;;;;;5.38;2.85;;;13.90;99.90;;;;;;5052899;28;20029;-75
2022/10/17 02:13:08;;;;;;;5.40;2.78;;;13.90;99.90;;;;;;5053948;28;20039;-75
2022/10/17 02:15:55;;;;;;;8.88;3.63;;;14.20;99.90;;;;;;5054054;28;20021;-74
2022/10/17 02:18:24;;;;;;;6.15;3.70;;;14.00;99.90;;;;;;5053904;28;20025;-74
2022/10/17 02:21:23;;;;;;;5.47;3.40;;;14.00;99.90;;;;;;5053725;28;20025;-74
2022/10/17 02:24:09;;;;;;;6.25;3.50;;;14.10;99.90;;;;;;5053797;28;20025;-75
2022/10/17 02:26:46;;;;;;;6.28;3.33;;;14.10;99.90;;;;;;5053828;28;20107;-74
2022/10/17 02:29:21;;;;;;;6.38;3.70;;;14.10;99.90;;;;;;5053728;28;20100;-75
2022/10/17 02:32:27;;;;;;;5.45;3.28;;;14.10;99.90;;;;;;5052349;28;20483;-76
2022/10/17 02:34:55;;;;;;;7.38;3.72;;;14.10;99.90;;;;;;4983346;28;20053;-76
2022/10/17 02:37:26;;;;;;;7.57;3.78;;;14.10;99.90;;;;;;5052380;28;20039;-76
2022/10/17 02:39:55;;;;;;;5.40;3.40;;;14.10;99.90;;;;;;5053442;28;20428;-76
2022/10/17 02:42:23;;;;;;;10.77;4.30;;;14.10;99.90;;;;;;5054027;28;20025;-75
2022/10/17 02:44:49;;;;;;;9.98;4.07;;;14.20;99.90;;;;;;5053513;28;20032;-75
2022/10/17 02:47:42;;;;;;;6.38;4.00;;;14.20;99.90;;;;;;5053459;28;20039;-75
2022/10/17 02:50:08;;;;;;;6.07;3.88;;;14.20;99.90;;;;;;5053315;28;20423;-75
2022/10/17 02:52:44;;;;;;;9.00;4.00;;;14.20;99.90;;;;;;5053276;28;20025;-75
2022/10/17 02:55:13;;;;;;;7.53;4.72;;;14.20;99.90;;;;;;5053351;28;20025;-75
2022/10/17 02:57:43;;;;;;;7.38;3.78;;;14.30;99.90;;;;;;5053282;28;20024;-75
2022/10/17 03:00:11;;;;;;;7.90;4.28;;;14.30;99.90;;;;;;5053132;28;20100;-75
2022/10/17 03:02:43;;;;;;;7.38;3.95;;;14.30;99.90;;;;;;5053810;28;20021;-75
2022/10/17 03:05:11;;;;;;;7.72;4.25;;;14.30;99.90;;;;;;5053251;28;20025;-75
2022/10/17 03:07:36;;;;;;;7.90;3.97;;;14.30;99.90;;;;;;5053132;28;20395;-75
2022/10/17 03:10:03;;;;;;;6.18;3.60;;;14.30;99.90;;;;;;5052769;28;20025;-76
2022/10/17 03:12:29;;;;;;;5.75;3.90;;;14.30;99.90;;;;;;5051740;28;20025;-75
2022/10/17 03:14:54;;;;;;;7.38;4.18;;;14.40;99.90;;;;;;5053090;28;20044;-75
2022/10/17 03:17:20;;;;;;;8.85;4.15;;;14.30;99.90;;;;;;5053040;28;20468;-75
2022/10/17 03:19:45;;;;;;;10.93;3.72;;;14.30;99.90;;;;;;5051636;28;20187;-74
2022/10/17 03:22:11;;;;;;;8.90;4.13;;;14.40;99.90;;;;;;5053015;28;20032;-74
2022/10/17 03:24:36;;;;;;;9.02;4.40;;;14.30;99.90;;;;;;5053050;28;20031;-74
2022/10/17 03:27:02;;;;;;;7.57;4.78;;;14.40;99.90;;;;;;5052982;28;20040;-75
2022/10/17 03:29:27;;;;;;;9.30;4.65;;;14.40;99.90;;;;;;5051617;28;20079;-75
2022/10/17 03:31:53;;;;;;;6.75;4.13;;;14.50;99.90;;;;;;5052801;28;20090;-74
2022/10/17 03:34:19;;;;;;;6.40;3.88;;;14.40;99.90;;;;;;5051627;28;20087;-75
2022/10/17 03:36:45;;;;;;;7.35;4.60;;;14.50;99.90;;;;;;5051570;28;20426;-75
2022/10/17 03:39:11;;;;;;;6.05;3.88;;;14.50;99.90;;;;;;5052925;28;20021;-75
2022/10/17 03:41:36;;;;;;;9.52;4.18;;;14.60;99.90;;;;;;5051562;28;20027;-75
2022/10/17 03:44:02;;;;;;;8.73;4.05;;;14.60;99.90;;;;;;5052786;28;20087;-74
2022/10/17 03:46:27;;;;;;;8.35;4.30;;;14.60;99.90;;;;;;5051584;28;20377;-74
2022/10/17 03:48:53;;;;;;;10.40;4.75;;;17.00;99.90;;;;;;5052560;28;20098;-75
2022/10/17 03:51:18;;;;;;;9.57;4.13;;;14.60;99.90;;;;;;5051333;28;20103;-75
2022/10/17 03:53:44;;;;;;;6.20;4.03;;;14.70;99.90;;;;;;5052710;28;20017;-75
2022/10/17 03:56:13;;;;;;;8.13;4.30;;;14.60;99.90;;;;;;5051481;28;20183;-75
2022/10/17 03:58:39;;;;;;;7.07;4.20;;;14.60;99.90;;;;;;5051376;28;20021;-75
2022/10/17 04:01:06;;;;;;;8.07;4.38;;;14.60;99.90;;;;;;5053105;28;20139;-75
2022/10/17 04:03:32;;;;;;;8.30;4.10;;;14.60;99.90;;;;;;5051304;28;20022;-75
2022/10/17 04:05:59;;;;;;;6.80;3.58;;;14.50;99.90;;;;;;5052546;28;20040;-75
2022/10/17 04:08:25;;;;;;;9.73;3.80;;;14.50;99.90;;;;;;5051363;28;20039;-75
2022/10/17 04:10:51;;;;;;;7.60;3.60;;;14.60;99.90;;;;;;5052389;28;20050;-74
2022/10/17 04:13:16;;;;;;;7.63;4.07;;;14.50;99.90;;;;;;5052489;28;20582;-74
2022/10/17 04:15:52;;;;;;;8.18;3.88;;;14.50;99.90;;;;;;5052531;28;20055;-74
2022/10/17 04:18:17;;;;;;;7.90;4.28;;;14.50;99.90;;;;;;5052529;28;20028;-74
2022/10/17 04:20:43;;;;;;;6.85;3.85;;;14.60;99.90;;;;;;5051463;28;20380;-74
2022/10/17 04:23:08;;;;;;;6.78;3.38;;;14.60;99.90;;;;;;5056136;28;20557;-75
2022/10/17 04:25:34;;;;;;;11.70;4.07;;;14.70;99.90;;;;;;5054830;28;20029;-74
2022/10/17 04:27:59;;;;;;;5.38;3.33;;;14.60;99.90;;;;;;5054782;28;20419;-74
2022/10/17 04:30:25;;;;;;;6.35;3.70;;;14.50;99.90;;;;;;5055898;28;20020;-75
2022/10/17 04:32:50;;;;;;;6.80;3.75;;;14.50;99.90;;;;;;5055901;28;20024;-75
2022/10/17 04:35:16;;;;;;;9.65;4.15;;;14.60;99.90;;;;;;5055887;28;20021;-75
2022/10/17 04:37:41;;;;;;;8.80;4.35;;;14.60;99.90;;;;;;5056331;28;20021;-74
2022/10/17 04:40:08;;;;;;;7.10;4.00;;;14.60;99.90;;;;;;5054589;28;20025;-74
2022/10/17 04:42:33;;;;;;;8.60;3.53;;;14.60;99.90;;;;;;5054475;28;20403;-74
2022/10/17 04:44:59;;;;;;;7.25;4.00;;;14.60;99.90;;;;;;5055673;28;20025;-74
2022/10/17 04:47:24;;;;;;;12.80;4.10;;;14.60;99.90;;;;;;5054453;28;20170;-75
2022/10/17 04:49:50;;;;;;;5.75;3.60;;;14.60;99.90;;;;;;5055508;28;20044;-75
2022/10/17 04:52:15;;;;;;;8.38;3.83;;;14.60;99.90;;;;;;5054213;28;20072;-75
2022/10/17 04:54:41;;;;;;;11.48;3.83;;;14.60;99.90;;;;;;5054223;28;20075;-75
2022/10/17 04:57:06;;;;;;;6.45;3.80;;;14.70;99.90;;;;;;5055470;28;20079;-74
2022/10/17 04:59:32;;;;;;;12.45;4.38;;;14.90;99.90;;;;;;5055393;28;20018;-74
2022/10/17 05:01:57;;;;;;;7.43;3.53;;;14.70;99.90;;;;;;5055319;28;20083;-74
2022/10/17 05:04:24;;;;;;;7.65;4.10;;;14.80;99.90;;;;;;5055349;28;20032;-74
2022/10/17 05:06:49;;;;;;;7.07;4.18;;;14.80;99.90;;;;;;5053994;28;20052;-74
2022/10/17 05:09:15;;;;;;;5.75;3.85;;;14.90;99.90;;;;;;5055774;28;20025;-74
2022/10/17 05:11:42;;;;;;;7.88;4.35;;;14.90;99.90;;;;;;5053765;28;20025;-74
2022/10/17 05:14:08;;;;;;;9.48;4.00;;;14.80;99.90;;;;;;5055144;28;20017;-74
2022/10/17 05:16:34;;;;;;;5.63;3.78;;;14.80;99.90;;;;;;5055147;28;20365;-74
2022/10/17 05:19:00;;;;;;;7.45;3.20;;;14.90;99.90;;;;;;5053830;28;20544;-74
2022/10/17 05:21:27;;;;;;;7.53;4.00;;;15.00;99.90;;;;;;5054971;28;20035;-74
2022/10/17 05:23:53;;;;;;;5.78;3.40;;;14.80;99.90;;;;;;5055527;28;20029;-73
2022/10/17 05:26:25;;;;;;;6.53;2.95;;;14.90;99.90;;;;;;5054915;28;20103;-75
2022/10/17 05:28:51;;;;;;;8.48;3.55;;;15.10;99.90;;;;;;5055081;28;20025;-75
2022/10/17 05:31:17;;;;;;;7.80;3.28;;;15.00;99.90;;;;;;5054532;28;20436;-75
2022/10/17 05:33:43;;;;;;;6.80;3.58;;;14.90;99.90;;;;;;5054595;28;20018;-75
2022/10/17 05:36:08;;;;;;;8.38;3.92;;;14.90;99.90;;;;;;5055586;28;20017;-77
2022/10/17 05:38:34;;;;;;;7.47;3.60;;;14.90;99.90;;;;;;5055443;28;20025;-77
2022/10/17 05:41:03;;;;;;;6.85;3.88;;;15.00;99.90;;;;;;5057450;28;20052;-77
2022/10/17 05:43:29;;;;;;;9.27;3.88;;;14.90;99.90;;;;;;5056843;28;20021;-77
2022/10/17 05:45:55;;;;;;;6.20;3.92;;;17.00;99.90;;;;;;5054633;28;20025;-77
2022/10/17 05:48:22;;;;;;;5.50;4.00;;;15.20;99.90;;;;;;5055068;28;20034;-77
2022/10/17 05:50:48;;;;;;;7.88;4.00;;;15.00;99.90;;;;;;5054960;28;20025;-75
2022/10/17 05:53:14;;;;;;;6.80;3.45;;;15.00;99.90;;;;;;5057111;28;20380;-77
2022/10/17 05:55:40;;;;;;;6.63;3.55;;;14.90;99.90;;;;;;5056548;28;20090;-77
2022/10/17 05:58:05;;;;;;;11.95;3.60;;;15.00;99.90;;;;;;5055012;28;20104;-77
2022/10/17 06:00:31;;;;;;;9.32;3.80;;;15.10;99.90;;;;;;5056251;28;20027;-77
2022/10/17 06:02:57;;;;;;;5.07;3.22;;;15.00;99.90;;;;;;5056563;28;20025;-77
2022/10/17 06:05:22;;;;;;;7.05;3.50;;;15.10;99.90;;;;;;5054974;28;20483;-77
2022/10/17 06:07:49;;;;;;;7.22;3.47;;;15.10;99.90;;;;;;5055185;28;20066;-77
2022/10/17 06:10:16;;;;;;;9.68;3.45;;;15.10;99.90;;;;;;5055487;28;20017;-76
2022/10/17 06:12:42;;;;;;;6.10;3.45;;;15.10;99.90;;;;;;5054057;28;20391;-76
2022/10/17 06:15:08;;;;;;;6.82;3.58;;;15.10;99.90;;;;;;5054083;28;20147;-76
2022/10/17 06:17:34;;;;;;;8.30;3.88;;;15.10;99.90;;;;;;5052709;28;20479;-76
2022/10/17 06:19:59;;;;;;;6.25;3.28;;;15.20;99.90;;;;;;5052501;28;20017;-76
2022/10/17 06:22:27;;;;;;;7.90;3.55;;;15.10;99.90;;;;;;5053858;28;20055;-75
2022/10/17 06:24:53;;;;;;;7.38;4.13;;;15.10;99.90;;;;;;5053758;28;20387;-75
2022/10/17 06:27:19;;;;;;;5.97;3.83;;;15.10;99.90;;;;;;5053810;28;20024;-75
2022/10/17 06:29:46;;;;;;;4.88;3.58;;;15.10;99.90;;;;;;5052351;28;20119;-75
2022/10/17 06:32:12;;;;;;;5.90;3.40;;;15.40;99.90;;;;;;5054520;28;20033;-76
2022/10/17 06:34:37;;;;;;;8.52;4.25;;;15.10;99.90;;;;;;5053673;28;20029;-75
2022/10/17 06:37:03;;;;;;;7.20;3.75;;;15.30;99.90;;;;;;5054145;28;20055;-75
2022/10/17 06:39:32;;;;;;;14.07;3.95;;;15.20;99.90;;;;;;5052321;28;20152;-75
2022/10/17 06:41:59;;;;;;;9.40;4.55;;;15.20;99.90;;;;;;5052870;28;20048;-75
2022/10/17 06:44:29;;;;;;;11.73;4.45;;;15.20;99.90;;;;;;5052317;28;20072;-74
2022/10/17 06:46:55;;;;;;;7.63;3.38;;;15.20;99.90;;;;;;5053465;28;20052;-75
2022/10/17 06:49:20;;;;;;;8.73;3.88;;;15.20;99.90;;;;;;5044984;22;20056;-74
2022/10/17 06:51:47;;;;;;;9.40;4.43;;;15.20;99.90;;;;;;5015458;28;20048;-75
2022/10/17 06:54:12;;;;;;;6.57;3.75;;;15.20;99.90;;;;;;5015978;28;20084;-74
2022/10/17 06:56:38;;;;;;;5.60;3.13;;;15.30;99.90;;;;;;5033318;28;20028;-74
2022/10/17 06:59:03;;;;;;;4.72;3.42;;;15.30;99.90;;;;;;5033837;28;20028;-74
2022/10/17 07:01:30;;;;;;;6.53;3.80;;;15.30;99.90;;;;;;5015463;28;20120;-74
2022/10/17 07:03:55;;;;;;;7.30;3.55;;;15.40;99.90;;;;;;5033264;28;20021;-74
2022/10/17 07:06:23;;;;;;;9.07;3.83;;;15.40;99.90;;;;;;5033216;28;20026;-74
2022/10/17 07:08:49;;;;;;;7.18;3.80;;;15.40;99.90;;;;;;5033317;28;20075;-74
2022/10/17 07:11:19;;;;;;;9.68;4.30;;;15.40;99.90;;;;;;5015455;28;20029;-74
2022/10/17 07:13:45;;;;;;;7.10;3.40;;;15.40;99.90;;;;;;5015602;28;20018;-74
2022/10/17 07:16:12;;;;;;;8.73;3.75;;;15.40;99.90;;;;;;5015396;28;20028;-74
2022/10/17 07:18:39;;;;;;;9.18;3.88;;;15.40;99.90;;;;;;5015410;28;20021;-74
2022/10/17 07:21:06;;;;;;;7.38;3.72;;;15.40;99.90;;;;;;5033046;28;20056;-74
2022/10/17 07:23:35;;;;;;;6.35;3.47;;;15.40;99.90;;;;;;5033099;28;20021;-74
2022/10/17 07:26:01;;;;;;;;;;;15.40;99.90;;;;;;5015765;28;20060;-74
2022/10/17 07:28:27;;;;;;;7.07;3.42;;;15.40;99.90;;;;;;5015250;28;20449;-74
2022/10/17 07:30:54;;;;;;;8.70;3.15;;;15.40;99.90;;;;;;5032814;28;20125;-74
2022/10/17 07:33:19;;;;;;;6.82;3.67;;;15.40;99.90;;;;;;5032721;28;20477;-74
2022/10/17 07:35:45;;;;;;;5.20;3.15;;;15.40;99.90;;;;;;5033397;28;20017;-74
2022/10/17 07:38:10;;;;;;;7.75;3.17;;;15.40;99.90;;;;;;5032757;28;20021;-74
2022/10/17 07:40:36;;;;;;;7.78;3.55;;;15.50;99.90;;;;;;5032750;28;20017;-74
2022/10/17 07:43:02;;;;;;;7.28;3.60;;;15.50;99.90;;;;;;5015106;28;20399;-74
2022/10/17 07:45:27;;;;;;;10.95;3.70;;;15.50;99.90;;;;;;5015115;28;20033;-75
2022/10/17 07:47:57;;;;;;;11.98;3.95;;;15.50;99.90;;;;;;5033483;28;20056;-77
2022/10/17 07:50:23;;;;;;;15.95;3.45;;;15.50;99.90;;;;;;5032872;28;20033;-75
2022/10/17 07:52:50;;;;;;;10.23;4.13;;;15.60;99.90;;;;;;5032724;28;20468;-76
2022/10/17 07:55:16;;;;;;;7.07;3.35;;;15.60;99.90;;;;;;5032883;28;20018;-76
2022/10/17 07:57:41;;;;;;;5.55;3.30;;;15.70;99.90;;;;;;5018587;28;20125;-75
2022/10/17 08:00:08;;;;;;;6.47;3.10;;;15.70;99.90;;;;;;5018958;28;20480;-75
2022/10/17 08:02:33;;;;;;;8.52;3.28;;;15.80;99.90;;;;;;5036572;28;20103;-76
2022/10/17 08:04:59;;;;;;;5.85;2.47;;;15.90;99.90;;;;;;5036541;28;20022;-76
2022/10/17 08:07:24;;;;;;;5.95;3.03;;;16.00;99.90;;;;;;5036476;28;20029;-76
2022/10/17 08:09:50;;;;;;;4.22;2.65;;;16.00;99.90;;;;;;5036925;28;20101;-75
2022/10/17 08:12:15;;;;;;;7.50;3.25;;;16.30;99.90;;;;;;5036309;28;20037;-76
2022/10/17 08:14:42;;;;;;;5.00;2.95;;;16.20;99.90;;;;;;5018571;28;20018;-75
2022/10/17 08:17:08;;;;;;;13.02;3.35;;;16.30;99.90;;;;;;5036317;28;20449;-76
2022/10/17 08:19:33;;;;;;;7.15;2.72;;;16.30;99.90;;;;;;5019354;28;20353;-76
2022/10/17 08:22:00;;;;;;;10.45;2.92;;;16.70;99.90;;;;;;5036121;28;20029;-76
2022/10/17 08:24:26;;;;;;;6.75;3.28;;;16.40;99.90;;;;;;5018379;28;20018;-76
2022/10/17 08:26:56;;;;;;;10.90;3.70;;;16.60;99.90;;;;;;5018408;28;20036;-75
2022/10/17 08:29:21;;;;;;;11.25;3.60;;;16.40;99.90;;;;;;5036072;28;20472;-75
2022/10/17 08:31:47;;;;;;;8.05;3.38;;;16.40;99.90;;;;;;5035901;28;20026;-76
2022/10/17 08:34:12;;;;;;;7.93;2.97;;;16.40;99.90;;;;;;5018323;28;20029;-76
2022/10/17 08:36:38;;;;;;;8.35;3.08;;;16.40;99.90;;;;;;5018262;28;20036;-74
2022/10/17 08:39:04;;;;;;;12.02;4.00;;;16.30;99.90;;;;;;5018337;28;20021;-74
2022/10/17 08:41:50;;;;;;;6.40;3.60;;;16.40;99.90;;;;;;5035741;28;20117;-74
2022/10/17 08:44:43;;;;;;;8.10;3.88;;;16.30;99.90;;;;;;5036020;28;20365;-74
2022/10/17 08:47:14;;;;;;;5.75;3.58;;;16.30;99.90;;;;;;5018056;28;20383;-74
2022/10/17 08:49:54;;;;;;;7.72;2.80;;;16.40;99.90;;;;;;5017980;28;20065;-74
2022/10/17 08:52:26;;;;;;;9.50;3.45;;;16.40;99.90;;;;;;5035680;28;20439;-76
2022/10/17 08:54:51;;;;;;;8.45;3.55;;;16.30;99.90;;;;;;5035595;28;20021;-74
2022/10/17 08:57:17;;;;;;;7.13;3.33;;;16.40;99.90;;;;;;5035619;28;20071;-74
2022/10/17 08:59:44;;;;;;;7.57;3.30;;;16.30;99.90;;;;;;5017706;28;20060;-74
2022/10/17 09:02:23;;;;;;;6.43;3.20;;;16.40;99.90;;;;;;5035453;28;20075;-74
2022/10/17 09:05:00;;;;;;;;;;;16.30;99.90;;;;;;5035917;28;20527;-74
2022/10/17 09:07:31;;;;;;;7.35;3.17;;;16.40;99.90;;;;;;5034828;28;20295;-74
2022/10/17 09:10:15;;;;;;;6.05;3.25;;;16.40;99.90;;;;;;5035768;28;20021;-74
2022/10/17 09:13:05;;;;;;;10.63;3.60;;;16.40;99.90;;;;;;5017463;28;20122;-74
2022/10/17 09:15:36;;;;;;;10.88;3.50;;;16.40;99.90;;;;;;5017475;28;20370;-74
2022/10/17 09:18:26;;;;;;;6.85;3.55;;;16.40;99.90;;;;;;5035189;28;20033;-74
2022/10/17 09:20:57;;;;;;;8.32;3.80;;;16.40;99.90;;;;;;5035063;28;20076;-74
2022/10/17 09:23:28;;;;;;;7.40;3.83;;;16.40;99.90;;;;;;5017250;28;20391;-73
2022/10/17 09:25:58;;;;;;;7.47;3.63;;;16.50;99.90;;;;;;5035497;28;20472;-73
2022/10/17 09:28:37;;;;;;;10.52;4.18;;;16.50;99.90;;;;;;5017272;28;20036;-73
2022/10/17 09:31:21;;;;;;;9.00;3.35;;;16.50;99.90;;;;;;5034683;28;20025;-73
2022/10/17 09:33:50;;;;;;;12.77;4.18;;;16.50;99.90;;;;;;5035396;28;20026;-73
2022/10/17 09:36:35;;;;;;;8.90;3.75;;;16.50;99.90;;;;;;5035314;28;20018;-73
2022/10/17 09:39:15;;;;;;;7.20;3.90;;;16.50;99.90;;;;;;5016977;28;20064;-73
2022/10/17 09:41:48;;;;;;;7.70;3.25;;;16.50;99.90;;;;;;5016912;28;20060;-75
2022/10/17 09:44:33;;;;;;;8.73;3.45;;;16.50;99.90;;;;;;5016968;28;20480;-73
2022/10/17 09:47:07;;;;;;;6.95;3.30;;;16.60;99.90;;;;;;5035345;28;20041;-73
2022/10/17 09:49:35;;;;;;;7.32;3.75;;;16.60;99.90;;;;;;5067020;22;20042;-74
2022/10/17 09:52:10;;;;;;;10.48;3.05;;;16.70;99.90;;;;;;5014706;28;20397;-74
2022/10/17 09:54:40;;;;;;;5.30;3.38;;;16.80;99.90;;;;;;5014884;28;20425;-74
2022/10/17 09:57:09;;;;;;;7.32;3.47;;;16.80;99.90;;;;;;5015331;28;20033;-74
2022/10/17 09:59:54;;;;;;;6.93;3.20;;;16.80;99.90;;;;;;5014751;28;20168;-74
2022/10/17 10:02:22;;;;;;;7.32;3.17;;;16.90;99.90;;;;;;5015107;28;20388;-74
2022/10/17 10:05:05;;;;;;;5.57;3.05;;;16.80;99.90;;;;;;4996880;28;20022;-74
2022/10/17 10:07:33;;;;;;;6.43;2.92;;;16.80;99.90;;;;;;5014674;28;20057;-74
2022/10/17 10:10:01;;;;;;;;;;;16.80;99.90;;;;;;4997233;28;20018;-74
2022/10/17 10:12:34;;;;;;;6.97;3.47;;;16.80;99.90;;;;;;5014315;28;19915;-74
2022/10/17 10:15:00;;;;;;;6.20;3.58;;;16.90;99.90;;;;;;4997144;28;20305;-74
2022/10/17 10:17:28;;;;;;;7.65;4.10;;;16.90;99.90;;;;;;5014376;28;20028;-74
2022/10/17 10:19:54;;;;;;;7.57;3.78;;;16.80;99.90;;;;;;5013413;28;20036;-75
2022/10/17 10:22:24;;;;;;;8.00;3.53;;;16.80;99.90;;;;;;5014231;28;20032;-74
2022/10/17 10:25:16;;;;;;;6.30;3.35;;;16.90;99.90;;;;;;5014285;28;20021;-74
2022/10/17 10:27:44;;;;;;;8.75;3.50;;;16.90;99.90;;;;;;5014092;28;20036;-74
2022/10/17 10:30:18;;;;;;;5.35;3.42;;;16.90;99.90;;;;;;5014363;28;20021;-74
2022/10/17 10:32:47;;;;;;;12.73;4.43;;;16.90;99.90;;;;;;5014163;28;20029;-74
2022/10/17 10:35:32;;;;;;;;;;;16.90;99.90;;;;;;5014739;28;20110;-75
2022/10/17 10:38:00;;;;;;;16.33;3.63;;;16.90;99.90;;;;;;5013569;28;19905;-74
2022/10/17 10:40:32;;;;;;;5.90;3.03;;;16.90;99.90;;;;;;5013944;28;20029;-74
2022/10/17 10:42:59;;;;;;;8.65;3.88;;;16.90;99.90;;;;;;4996342;28;20030;-74
2022/10/17 10:45:35;;;;;;;6.30;3.50;;;16.90;99.90;;;;;;4996235;28;20030;-75
2022/10/17 10:48:25;;;;;;;4.63;3.00;;;16.90;99.90;;;;;;5013681;28;20084;-74
2022/10/17 10:51:02;;;;;;;4.03;3.25;;;17.00;99.90;;;;;;5014323;28;20080;-74
2022/10/17 10:53:39;;;;;;;3.72;2.55;;;17.00;99.90;;;;;;5013756;28;20481;-75
2022/10/17 10:56:08;;;;;;;8.48;3.33;;;16.90;99.90;;;;;;4996026;28;20034;-75
2022/10/17 10:58:56;;;;;;;6.20;3.30;;;16.90;99.90;;;;;;5013683;28;20025;-75
2022/10/17 11:01:37;;;;;;;4.27;2.17;;;16.80;99.90;;;;;;5013842;28;20022;-75
2022/10/17 11:04:22;;;;;;;4.03;2.28;;;16.80;99.90;;;;;;4996142;28;20269;-75
2022/10/17 11:06:51;;;;;;;2.17;1.35;;;16.70;99.90;;;;;;5013596;28;20018;-75
2022/10/17 11:09:45;;;;;;;4.32;1.20;;;16.60;99.90;;;;;;4996558;28;20018;-75
2022/10/17 11:12:21;;;;;;;1.65;0.75;;;16.70;99.90;;;;;;5013588;28;20037;-75
2022/10/17 11:15:15;;;;;;;1.65;1.10;;;16.70;99.90;;;;;;5013750;28;20033;-74
2022/10/17 11:17:56;;;;;;;1.73;1.00;;;16.70;99.90;;;;;;4996119;28;20022;-76
2022/10/17 11:20:56;;;;;;;8.75;2.00;;;16.70;99.90;;;;;;5013444;28;20092;-74
2022/10/17 11:23:47;;;;;;;8.07;3.05;;;16.80;99.90;;;;;;5013561;28;20559;-73
2022/10/17 11:26:28;;;;;;;6.57;3.00;;;16.90;99.90;;;;;;5013979;28;20034;-75
2022/10/17 11:28:54;;;;;;;6.47;2.85;;;16.90;99.90;;;;;;5013392;28;20092;-73
2022/10/17 11:31:23;;;;;;;4.30;3.00;;;16.90;99.90;;;;;;5016212;28;20029;-73
2022/10/17 11:33:53;;;;;;;;;;;17.00;99.90;;;;;;5000214;28;20092;-72
2022/10/17 11:36:24;;;;;;;4.10;2.58;;;17.00;99.90;;;;;;5017710;28;19996;-75
2022/10/17 11:38:59;;;;;;;4.25;2.45;;;17.10;99.90;;;;;;5017397;28;20074;-75
2022/10/17 11:41:53;;;;;;;6.45;2.78;;;17.00;99.90;;;;;;5017197;28;20022;-75
2022/10/17 11:44:31;;;;;;;5.40;2.78;;;17.10;99.90;;;;;;5017652;28;20071;-76
2022/10/17 11:47:03;;;;;;;4.20;2.35;;;17.00;99.90;;;;;;5017104;28;20026;-76
2022/10/17 11:49:41;;;;;;;4.25;2.20;;;17.00;99.90;;;;;;5017186;28;20028;-74
2022/10/17 11:52:15;;;;;;;3.70;2.08;;;17.00;99.90;;;;;;5017048;28;20087;-74
2022/10/17 11:54:49;;;;;;;4.30;2.60;;;17.00;99.90;;;;;;5017160;28;20101;-76
2022/10/17 11:57:18;;;;;;;4.95;2.58;;;17.00;99.90;;;;;;4999959;28;20021;-76
2022/10/17 11:59:49;;;;;;;4.20;2.40;;;16.90;99.90;;;;;;5017068;28;20044;-76
2022/10/17 12:02:44;;;;;;;3.00;2.15;;;16.90;99.90;;;;;;4999146;28;20129;-74
2022/10/17 12:05:10;;;;;;;3.13;2.20;;;16.90;99.90;;;;;;5016742;28;20080;-73
2022/10/17 12:07:53;;;;;;;3.22;2.30;;;16.90;99.90;;;;;;4998989;28;20484;-73
2022/10/17 12:10:44;;;;;;;5.15;2.50;;;16.80;99.90;;;;;;5016764;28;20057;-74
2022/10/17 12:13:28;;;;;;;3.00;1.60;;;16.80;99.90;;;;;;5016567;28;20034;-74
2022/10/17 12:16:18;;;;;;;2.88;1.70;;;16.80;99.90;;;;;;5017023;28;20022;-74
2022/10/17 12:18:48;;;;;;;3.20;1.48;;;16.80;99.90;;;;;;4982160;28;20030;-74
2022/10/17 12:21:14;;;;;;;1.63;1.02;;;16.70;99.90;;;;;;5016306;28;20026;-74
2022/10/17 12:23:40;;;;;;;2.08;1.00;;;16.70;99.90;;;;;;5016463;28;20079;-74
2022/10/17 12:26:09;;;;;;;2.28;0.65;;;16.80;99.90;;;;;;5016429;28;20072;-74
2022/10/17 12:28:46;;;;;;;1.25;0.90;;;16.70;99.90;;;;;;4998968;28;20022;-74
2022/10/17 12:31:14;;;;;;;3.17;1.27;;;16.70;99.90;;;;;;5016074;28;20473;-74
2022/10/17 12:33:53;;;;;;;0.38;0.38;;;16.70;99.90;;;;;;5016130;28;20022;-74
2022/10/17 12:36:21;;;;;;;3.03;0.90;;;16.70;99.90;;;;;;5016531;28;20028;-74
2022/10/17 12:39:00;;;;;;;2.25;0.52;;;16.60;99.90;;;;;;5016633;28;20539;-74
2022/10/17 12:41:38;;;;;;;1.65;0.60;;;16.60;99.90;;;;;;5015204;28;20477;-74
2022/10/17 12:44:12;;;;;;;1.50;0.30;;;16.50;99.90;;;;;;4998609;28;20113;-74
2022/10/17 12:46:54;;;;;;;3.22;0.40;;;16.50;99.90;;;;;;4998504;28;20112;-74
2022/10/17 12:49:21;;;;;;;1.23;0.60;;;16.40;99.90;;;;;;5015874;28;20025;-74
2022/10/17 12:52:33;;;;;;;2.65;0.28;;;16.40;99.90;;;;;;4998170;28;20034;-74
2022/10/17 12:55:02;;;;;;;1.17;0.30;;;16.30;99.90;;;;;;4998324;28;20108;-74
2022/10/17 12:57:52;;;;;;;0.82;0.52;;;16.30;99.90;;;;;;5015926;28;20029;-74
2022/10/17 13:00:41;;;;;;;1.25;0.57;;;16.30;99.90;;;;;;5016118;28;20026;-74
2022/10/17 13:03:14;;;;;;;1.67;0.30;;;16.20;99.90;;;;;;4998186;28;20026;-74
2022/10/17 13:05:46;;;;;;;0.85;0.57;;;16.20;99.90;;;;;;5015666;28;20080;-74
2022/10/17 13:08:22;;;;;;;2.38;0.60;;;16.20;99.90;;;;;;5015703;28;20026;-74